sensor_id;sensor_type;location;lat;lon;timestamp;pressure;altitude;pressure_sealevel;temperature;humidity
74798;BME280;63326;45.088;7.658;2024-01-30T00:01:46;100671.06;;;-1.06;100.00
74798;BME280;63326;45.088;7.658;2024-01-30T00:04:14;100663.00;;;-1.23;100.00
74798;BME280;63326;45.088;7.658;2024-01-30T00:06:45;100673.44;;;-1.20;100.00
74798;BME280;63326;45.088;7.658;2024-01-30T00:09:12;100636.06;;;-1.50;100.00
74798;BME280;63326;45.088;7.658;2024-01-30T00:11:40;100639.41;;;-1.47;100.00
74798;BME280;63326;45.088;7.658;2024-01-30T00:14:09;100673.38;;;-1.19;100.00
74798;BME280;63326;45.088;7.658;2024-01-30T00:16:39;100660.50;;;-1.26;100.00
74798;BME280;63326;45.088;7.658;2024-01-30T00:19:06;100679.50;;;-1.18;100.00
74798;BME280;63326;45.088;7.658;2024-01-30T00:21:35;100660.91;;;-1.36;100.00
74798;BME280;63326;45.088;7.658;2024-01-30T00:24:05;100673.84;;;-1.30;100.00
74798;BME280;63326;45.088;7.658;2024-01-30T00:26:32;100670.50;;;-1.35;100.00
74798;BME280;63326;45.088;7.658;2024-01-30T00:28:58;100666.88;;;-1.32;100.00
74798;BME280;63326;45.088;7.658;2024-01-30T00:31:25;100684.75;;;-1.39;100.00
74798;BME280;63326;45.088;7.658;2024-01-30T00:33:52;100663.25;;;-1.50;100.00
74798;BME280;63326;45.088;7.658;2024-01-30T00:36:21;100665.63;;;-1.44;100.00
74798;BME280;63326;45.088;7.658;2024-01-30T00:38:49;100669.19;;;-1.45;100.00
74798;BME280;63326;45.088;7.658;2024-01-30T00:41:17;100669.19;;;-1.45;100.00
74798;BME280;63326;45.088;7.658;2024-01-30T00:43:46;100660.56;;;-1.48;100.00
74798;BME280;63326;45.088;7.658;2024-01-30T00:46:14;100642.41;;;-1.56;100.00
74798;BME280;63326;45.088;7.658;2024-01-30T00:48:44;100648.63;;;-1.57;100.00
74798;BME280;63326;45.088;7.658;2024-01-30T00:51:13;100666.00;;;-1.53;100.00
74798;BME280;63326;45.088;7.658;2024-01-30T00:53:41;100670.78;;;-1.63;100.00
74798;BME280;63326;45.088;7.658;2024-01-30T00:56:11;100663.25;;;-1.72;100.00
74798;BME280;63326;45.088;7.658;2024-01-30T00:58:39;100675.34;;;-1.66;100.00
74798;BME280;63326;45.088;7.658;2024-01-30T01:01:07;100668.97;;;-1.61;100.00
74798;BME280;63326;45.088;7.658;2024-01-30T01:03:37;100673.97;;;-1.54;100.00
74798;BME280;63326;45.088;7.658;2024-01-30T01:06:05;100669.50;;;-1.52;100.00
74798;BME280;63326;45.088;7.658;2024-01-30T01:08:39;100667.78;;;-1.53;100.00
74798;BME280;63326;45.088;7.658;2024-01-30T01:11:08;100672.31;;;-1.57;100.00
74798;BME280;63326;45.088;7.658;2024-01-30T01:13:39;100681.16;;;-1.58;100.00
74798;BME280;63326;45.088;7.658;2024-01-30T01:16:06;100667.50;;;-1.68;100.00
74798;BME280;63326;45.088;7.658;2024-01-30T01:18:34;100684.03;;;-1.64;100.00
74798;BME280;63326;45.088;7.658;2024-01-30T01:21:00;100672.69;;;-1.66;100.00
74798;BME280;63326;45.088;7.658;2024-01-30T01:23:27;100685.50;;;-1.57;100.00
74798;BME280;63326;45.088;7.658;2024-01-30T01:25:54;100646.16;;;-1.83;100.00
74798;BME280;63326;45.088;7.658;2024-01-30T01:28:26;100677.41;;;-1.74;100.00
74798;BME280;63326;45.088;7.658;2024-01-30T01:30:53;100681.38;;;-1.86;100.00
74798;BME280;63326;45.088;7.658;2024-01-30T01:33:25;100682.94;;;-1.80;100.00
74798;BME280;63326;45.088;7.658;2024-01-30T01:35:54;100684.09;;;-1.88;100.00
74798;BME280;63326;45.088;7.658;2024-01-30T01:38:23;100674.63;;;-1.93;100.00
74798;BME280;63326;45.088;7.658;2024-01-30T01:40:50;100672.44;;;-2.04;100.00
74798;BME280;63326;45.088;7.658;2024-01-30T01:43:18;100673.63;;;-2.12;100.00
74798;BME280;63326;45.088;7.658;2024-01-30T01:45:47;100673.69;;;-2.14;100.00
74798;BME280;63326;45.088;7.658;2024-01-30T01:48:16;100667.06;;;-2.24;100.00
74798;BME280;63326;45.088;7.658;2024-01-30T01:50:43;100674.75;;;-2.18;100.00
74798;BME280;63326;45.088;7.658;2024-01-30T01:53:12;100678.97;;;-2.14;100.00
74798;BME280;63326;45.088;7.658;2024-01-30T01:55:39;100668.38;;;-2.12;100.00
74798;BME280;63326;45.088;7.658;2024-01-30T01:58:07;100670.13;;;-2.11;100.00
74798;BME280;63326;45.088;7.658;2024-01-30T02:00:36;100667.56;;;-2.14;100.00
74798;BME280;63326;45.088;7.658;2024-01-30T02:03:08;100655.00;;;-2.06;100.00
74798;BME280;63326;45.088;7.658;2024-01-30T02:05:34;100669.78;;;-2.04;100.00
74798;BME280;63326;45.088;7.658;2024-01-30T02:08:04;100672.97;;;-2.18;100.00
74798;BME280;63326;45.088;7.658;2024-01-30T02:10:33;100670.63;;;-2.25;100.00
74798;BME280;63326;45.088;7.658;2024-01-30T02:13:01;100658.84;;;-2.38;100.00
74798;BME280;63326;45.088;7.658;2024-01-30T02:15:30;100660.00;;;-2.46;100.00
74798;BME280;63326;45.088;7.658;2024-01-30T02:17:57;100642.31;;;-2.65;100.00
74798;BME280;63326;45.088;7.658;2024-01-30T02:20:25;100664.69;;;-2.54;100.00
74798;BME280;63326;45.088;7.658;2024-01-30T02:22:55;100644.78;;;-2.61;100.00
74798;BME280;63326;45.088;7.658;2024-01-30T02:25:35;100658.75;;;-2.59;100.00
74798;BME280;63326;45.088;7.658;2024-01-30T02:28:03;100667.22;;;-2.51;100.00
74798;BME280;63326;45.088;7.658;2024-01-30T02:30:31;100667.09;;;-2.48;100.00
74798;BME280;63326;45.088;7.658;2024-01-30T02:33:00;100660.06;;;-2.47;100.00
74798;BME280;63326;45.088;7.658;2024-01-30T02:35:27;100670.44;;;-2.44;100.00
74798;BME280;63326;45.088;7.658;2024-01-30T02:37:56;100662.00;;;-2.29;100.00
74798;BME280;63326;45.088;7.658;2024-01-30T02:40:23;100657.41;;;-2.24;100.00
74798;BME280;63326;45.088;7.658;2024-01-30T02:42:50;100662.13;;;-2.32;100.00
74798;BME280;63326;45.088;7.658;2024-01-30T02:45:17;100653.66;;;-2.40;100.00
74798;BME280;63326;45.088;7.658;2024-01-30T02:47:45;100647.47;;;-2.39;100.00
74798;BME280;63326;45.088;7.658;2024-01-30T02:50:12;100657.41;;;-2.24;100.00
74798;BME280;63326;45.088;7.658;2024-01-30T02:52:42;100646.16;;;-2.27;100.00
74798;BME280;63326;45.088;7.658;2024-01-30T02:55:12;100638.47;;;-2.33;100.00
74798;BME280;63326;45.088;7.658;2024-01-30T02:57:43;100621.38;;;-2.45;100.00
74798;BME280;63326;45.088;7.658;2024-01-30T03:00:12;100652.97;;;-2.22;100.00
74798;BME280;63326;45.088;7.658;2024-01-30T03:02:41;100643.88;;;-2.36;100.00
74798;BME280;63326;45.088;7.658;2024-01-30T03:05:08;100634.78;;;-2.51;100.00
74798;BME280;63326;45.088;7.658;2024-01-30T03:07:35;100647.16;;;-2.53;100.00
74798;BME280;63326;45.088;7.658;2024-01-30T03:10:02;100650.72;;;-2.56;100.00
74798;BME280;63326;45.088;7.658;2024-01-30T03:12:29;100622.09;;;-2.63;100.00
74798;BME280;63326;45.088;7.658;2024-01-30T03:14:56;100650.56;;;-2.51;100.00
74798;BME280;63326;45.088;7.658;2024-01-30T03:17:24;100632.09;;;-2.73;100.00
74798;BME280;63326;45.088;7.658;2024-01-30T03:19:51;100657.75;;;-2.56;100.00
74798;BME280;63326;45.088;7.658;2024-01-30T03:22:19;100663.03;;;-2.56;100.00
74798;BME280;63326;45.088;7.658;2024-01-30T03:24:46;100642.03;;;-2.81;100.00
74798;BME280;63326;45.088;7.658;2024-01-30T03:27:13;100647.63;;;-2.90;100.00
74798;BME280;63326;45.088;7.658;2024-01-30T03:29:41;100650.41;;;-2.95;100.00
74798;BME280;63326;45.088;7.658;2024-01-30T03:32:09;100642.81;;;-3.03;100.00
74798;BME280;63326;45.088;7.658;2024-01-30T03:34:39;100648.16;;;-3.06;100.00
74798;BME280;63326;45.088;7.658;2024-01-30T03:37:07;100640.88;;;-2.97;100.00
74798;BME280;63326;45.088;7.658;2024-01-30T03:39:35;100651.25;;;-2.94;100.00
74798;BME280;63326;45.088;7.658;2024-01-30T03:42:05;100641.09;;;-3.04;100.00
74798;BME280;63326;45.088;7.658;2024-01-30T03:44:32;100641.25;;;-3.08;100.00
74798;BME280;63326;45.088;7.658;2024-01-30T03:46:59;100643.00;;;-3.09;100.00
74798;BME280;63326;45.088;7.658;2024-01-30T03:49:28;100647.41;;;-3.09;100.00
74798;BME280;63326;45.088;7.658;2024-01-30T03:51:56;100643.75;;;-3.05;100.00
74798;BME280;63326;45.088;7.658;2024-01-30T03:54:24;100642.91;;;-3.06;100.00
74798;BME280;63326;45.088;7.658;2024-01-30T03:56:51;100651.50;;;-3.00;100.00
74798;BME280;63326;45.088;7.658;2024-01-30T03:59:18;100646.31;;;-2.79;100.00
74798;BME280;63326;45.088;7.658;2024-01-30T04:01:54;100643.16;;;-2.88;100.00
74798;BME280;63326;45.088;7.658;2024-01-30T04:04:27;100654.78;;;-2.94;100.00
74798;BME280;63326;45.088;7.658;2024-01-30T04:06:55;100650.56;;;-2.99;100.00
74798;BME280;63326;45.088;7.658;2024-01-30T04:09:23;100649.00;;;-3.05;100.00
74798;BME280;63326;45.088;7.658;2024-01-30T04:11:51;100591.72;;;-3.44;100.00
74798;BME280;63326;45.088;7.658;2024-01-30T04:14:18;100642.34;;;-3.14;100.00
74798;BME280;63326;45.088;7.658;2024-01-30T04:16:45;100650.22;;;-3.14;100.00
74798;BME280;63326;45.088;7.658;2024-01-30T04:19:14;100633.84;;;-3.22;100.00
74798;BME280;63326;45.088;7.658;2024-01-30T04:21:43;100646.50;;;-3.08;100.00
74798;BME280;63326;45.088;7.658;2024-01-30T04:24:10;100649.53;;;-2.95;100.00
74798;BME280;63326;45.088;7.658;2024-01-30T04:26:41;100651.22;;;-2.93;100.00
74798;BME280;63326;45.088;7.658;2024-01-30T04:29:09;100654.47;;;-2.86;100.00
74798;BME280;63326;45.088;7.658;2024-01-30T04:31:38;100639.41;;;-2.81;100.00
74798;BME280;63326;45.088;7.658;2024-01-30T04:34:19;100634.47;;;-2.90;100.00
74798;BME280;63326;45.088;7.658;2024-01-30T04:36:46;100607.06;;;-3.08;100.00
74798;BME280;63326;45.088;7.658;2024-01-30T04:39:15;100626.38;;;-3.09;100.00
74798;BME280;63326;45.088;7.658;2024-01-30T04:41:44;100624.88;;;-3.16;100.00
74798;BME280;63326;45.088;7.658;2024-01-30T04:44:12;100638.88;;;-3.16;100.00
74798;BME280;63326;45.088;7.658;2024-01-30T04:46:39;100628.69;;;-3.25;100.00
74798;BME280;63326;45.088;7.658;2024-01-30T04:49:06;100603.22;;;-3.48;100.00
74798;BME280;63326;45.088;7.658;2024-01-30T04:51:37;100625.16;;;-3.24;100.00
74798;BME280;63326;45.088;7.658;2024-01-30T04:54:08;100620.97;;;-3.29;100.00
74798;BME280;63326;45.088;7.658;2024-01-30T04:56:35;100647.22;;;-3.05;100.00
74798;BME280;63326;45.088;7.658;2024-01-30T04:59:03;100645.19;;;-2.96;100.00
74798;BME280;63326;45.088;7.658;2024-01-30T05:01:37;100627.91;;;-3.02;100.00
74798;BME280;63326;45.088;7.658;2024-01-30T05:04:08;100609.97;;;-3.16;100.00
74798;BME280;63326;45.088;7.658;2024-01-30T05:06:42;100640.81;;;-2.96;100.00
74798;BME280;63326;45.088;7.658;2024-01-30T05:09:10;100645.66;;;-2.85;100.00
74798;BME280;63326;45.088;7.658;2024-01-30T05:11:42;100606.09;;;-3.06;100.00
74798;BME280;63326;45.088;7.658;2024-01-30T05:14:12;100651.69;;;-2.82;100.00
74798;BME280;63326;45.088;7.658;2024-01-30T05:16:46;100653.47;;;-2.82;100.00
74798;BME280;63326;45.088;7.658;2024-01-30T05:19:17;100643.81;;;-2.82;100.00
74798;BME280;63326;45.088;7.658;2024-01-30T05:21:45;100647.56;;;-2.89;100.00
74798;BME280;63326;45.088;7.658;2024-01-30T05:24:14;100630.66;;;-3.07;100.00
74798;BME280;63326;45.088;7.658;2024-01-30T05:26:46;100664.00;;;-2.82;100.00
74798;BME280;63326;45.088;7.658;2024-01-30T05:29:14;100648.31;;;-2.85;100.00
74798;BME280;63326;45.088;7.658;2024-01-30T05:31:43;100639.75;;;-2.90;100.00
74798;BME280;63326;45.088;7.658;2024-01-30T05:34:10;100665.06;;;-2.88;100.00
74798;BME280;63326;45.088;7.658;2024-01-30T05:36:37;100662.69;;;-2.95;100.00
74798;BME280;63326;45.088;7.658;2024-01-30T05:39:04;100662.06;;;-3.02;100.00
74798;BME280;63326;45.088;7.658;2024-01-30T05:41:35;100670.00;;;-3.04;100.00
74798;BME280;63326;45.088;7.658;2024-01-30T05:44:03;100668.56;;;-3.12;100.00
74798;BME280;63326;45.088;7.658;2024-01-30T05:46:35;100643.16;;;-3.38;100.00
74798;BME280;63326;45.088;7.658;2024-01-30T05:49:10;100626.75;;;-3.45;100.00
74798;BME280;63326;45.088;7.658;2024-01-30T05:51:41;100652.38;;;-3.26;100.00
74798;BME280;63326;45.088;7.658;2024-01-30T05:54:16;100668.75;;;-3.18;100.00
74798;BME280;63326;45.088;7.658;2024-01-30T05:56:43;100662.31;;;-3.10;100.00
74798;BME280;63326;45.088;7.658;2024-01-30T05:59:17;100630.13;;;-3.16;100.00
74798;BME280;63326;45.088;7.658;2024-01-30T06:01:48;100666.22;;;-2.96;100.00
74798;BME280;63326;45.088;7.658;2024-01-30T06:04:15;100665.56;;;-3.01;100.00
74798;BME280;63326;45.088;7.658;2024-01-30T06:06:44;100665.75;;;-3.08;100.00
74798;BME280;63326;45.088;7.658;2024-01-30T06:09:14;100670.16;;;-3.08;100.00
74798;BME280;63326;45.088;7.658;2024-01-30T06:11:44;100672.66;;;-3.05;100.00
74798;BME280;63326;45.088;7.658;2024-01-30T06:14:12;100635.44;;;-3.18;100.00
74798;BME280;63326;45.088;7.658;2024-01-30T06:16:45;100677.34;;;-2.88;100.00
74798;BME280;63326;45.088;7.658;2024-01-30T06:19:14;100671.34;;;-2.92;100.00
74798;BME280;63326;45.088;7.658;2024-01-30T06:21:42;100673.13;;;-2.92;100.00
74798;BME280;63326;45.088;7.658;2024-01-30T06:24:19;100646.13;;;-2.97;100.00
74798;BME280;63326;45.088;7.658;2024-01-30T06:26:46;100668.09;;;-2.75;100.00
74798;BME280;63326;45.088;7.658;2024-01-30T06:29:15;100674.31;;;-2.78;100.00
74798;BME280;63326;45.088;7.658;2024-01-30T06:31:45;100674.44;;;-2.81;100.00
74798;BME280;63326;45.088;7.658;2024-01-30T06:34:13;100667.47;;;-2.82;100.00
74798;BME280;63326;45.088;7.658;2024-01-30T06:36:40;100667.47;;;-2.82;100.00
74798;BME280;63326;45.088;7.658;2024-01-30T06:39:10;100674.25;;;-2.76;100.00
74798;BME280;63326;45.088;7.658;2024-01-30T06:41:37;100654.53;;;-2.88;100.00
74798;BME280;63326;45.088;7.658;2024-01-30T06:44:04;100622.03;;;-3.10;100.00
74798;BME280;63326;45.088;7.658;2024-01-30T06:46:35;100668.34;;;-2.81;100.00
74798;BME280;63326;45.088;7.658;2024-01-30T06:49:05;100676.38;;;-2.86;100.00
74798;BME280;63326;45.088;7.658;2024-01-30T06:51:32;100669.44;;;-2.88;100.00
74798;BME280;63326;45.088;7.658;2024-01-30T06:53:59;100680.16;;;-2.93;100.00
74798;BME280;63326;45.088;7.658;2024-01-30T06:56:30;100672.19;;;-2.91;100.00
74798;BME280;63326;45.088;7.658;2024-01-30T06:58:57;100670.91;;;-2.80;100.00
74798;BME280;63326;45.088;7.658;2024-01-30T07:01:31;100664.66;;;-2.77;100.00
74798;BME280;63326;45.088;7.658;2024-01-30T07:04:01;100679.00;;;-2.61;100.00
74798;BME280;63326;45.088;7.658;2024-01-30T07:06:28;100676.03;;;-2.52;100.00
74798;BME280;63326;45.088;7.658;2024-01-30T07:08:57;100673.56;;;-2.33;100.00
74798;BME280;63326;45.088;7.658;2024-01-30T07:11:24;100683.56;;;-2.19;100.00
74798;BME280;63326;45.088;7.658;2024-01-30T07:13:53;100678.03;;;-2.13;100.00
74798;BME280;63326;45.088;7.658;2024-01-30T07:16:20;100677.34;;;-1.95;100.00
74798;BME280;63326;45.088;7.658;2024-01-30T07:18:48;100676.81;;;-1.81;100.00
74798;BME280;63326;45.088;7.658;2024-01-30T07:21:21;100674.09;;;-1.58;100.00
74798;BME280;63326;45.088;7.658;2024-01-30T07:23:53;100668.03;;;-1.38;100.00
74798;BME280;63326;45.088;7.658;2024-01-30T07:26:20;100665.53;;;-1.20;100.00
74798;BME280;63326;45.088;7.658;2024-01-30T07:28:49;100688.81;;;-0.89;100.00
74798;BME280;63326;45.088;7.658;2024-01-30T07:31:16;100687.66;;;-0.63;100.00
74798;BME280;63326;45.088;7.658;2024-01-30T07:33:58;100689.44;;;-0.25;100.00
74798;BME280;63326;45.088;7.658;2024-01-30T07:36:25;100677.25;;;0.28;100.00
74798;BME280;63326;45.088;7.658;2024-01-30T07:38:54;100701.28;;;0.94;100.00
74798;BME280;63326;45.088;7.658;2024-01-30T07:41:24;100683.91;;;1.40;100.00
74798;BME280;63326;45.088;7.658;2024-01-30T07:43:56;100690.34;;;2.16;100.00
74798;BME280;63326;45.088;7.658;2024-01-30T07:46:24;100705.66;;;2.43;100.00
74798;BME280;63326;45.088;7.658;2024-01-30T07:48:51;100703.34;;;2.53;100.00
74798;BME280;63326;45.088;7.658;2024-01-30T07:51:21;100693.59;;;2.53;100.00
74798;BME280;63326;45.088;7.658;2024-01-30T07:53:52;100699.53;;;3.47;93.12
74798;BME280;63326;45.088;7.658;2024-01-30T07:56:26;100710.03;;;4.19;83.54
74798;BME280;63326;45.088;7.658;2024-01-30T07:58:53;100711.59;;;4.77;78.31
74798;BME280;63326;45.088;7.658;2024-01-30T08:01:21;100713.97;;;5.22;74.48
74798;BME280;63326;45.088;7.658;2024-01-30T08:03:51;100708.38;;;5.64;72.81
74798;BME280;63326;45.088;7.658;2024-01-30T08:06:22;100714.59;;;6.02;70.03
74798;BME280;63326;45.088;7.658;2024-01-30T08:08:50;100682.34;;;5.68;69.38
74798;BME280;63326;45.088;7.658;2024-01-30T08:11:24;100710.78;;;5.80;70.14
74798;BME280;63326;45.088;7.658;2024-01-30T08:13:57;100721.69;;;5.64;70.40
74798;BME280;63326;45.088;7.658;2024-01-30T08:16:27;100713.66;;;5.90;69.92
74798;BME280;63326;45.088;7.658;2024-01-30T08:18:55;100700.88;;;5.82;67.74
74798;BME280;63326;45.088;7.658;2024-01-30T08:21:26;100717.50;;;5.35;69.30
74798;BME280;63326;45.088;7.658;2024-01-30T08:23:52;100695.69;;;4.63;73.37
74798;BME280;63326;45.088;7.658;2024-01-30T08:26:22;100719.00;;;4.45;75.23
74798;BME280;63326;45.088;7.658;2024-01-30T08:28:49;100719.72;;;4.20;77.42
74798;BME280;63326;45.088;7.658;2024-01-30T08:31:19;100726.97;;;3.90;79.87
74798;BME280;63326;45.088;7.658;2024-01-30T08:33:46;100716.44;;;3.60;81.79
74798;BME280;63326;45.088;7.658;2024-01-30T08:36:17;100726.03;;;3.18;83.27
74798;BME280;63326;45.088;7.658;2024-01-30T08:38:46;100700.31;;;2.74;87.31
74798;BME280;63326;45.088;7.658;2024-01-30T08:41:13;100694.59;;;2.66;88.44
74798;BME280;63326;45.088;7.658;2024-01-30T08:43:52;100729.59;;;3.03;87.44
74798;BME280;63326;45.088;7.658;2024-01-30T08:46:37;100722.72;;;3.29;87.40
74798;BME280;63326;45.088;7.658;2024-01-30T08:49:23;100708.78;;;3.25;87.81
74798;BME280;63326;45.088;7.658;2024-01-30T08:52:08;100733.50;;;3.56;84.82
74798;BME280;63326;45.088;7.658;2024-01-30T08:54:54;100729.69;;;3.31;87.86
74798;BME280;63326;45.088;7.658;2024-01-30T08:57:43;100726.50;;;3.55;87.27
74798;BME280;63326;45.088;7.658;2024-01-30T09:00:23;100705.81;;;3.60;86.60
74798;BME280;63326;45.088;7.658;2024-01-30T09:02:59;100687.03;;;3.77;82.91
74798;BME280;63326;45.088;7.658;2024-01-30T09:05:28;100724.13;;;4.22;82.36
74798;BME280;63326;45.088;7.658;2024-01-30T09:07:56;100725.22;;;4.73;77.08
74798;BME280;63326;45.088;7.658;2024-01-30T09:10:43;100685.94;;;5.03;74.68
74798;BME280;63326;45.088;7.658;2024-01-30T09:13:30;100719.31;;;5.34;73.38
74798;BME280;63326;45.088;7.658;2024-01-30T09:16:04;100691.31;;;5.54;72.61
74798;BME280;63326;45.088;7.658;2024-01-30T09:18:38;100691.16;;;5.81;72.66
74798;BME280;63326;45.088;7.658;2024-01-30T09:21:46;100704.66;;;6.77;68.06
74798;BME280;63326;45.088;7.658;2024-01-30T09:24:13;100714.06;;;7.86;63.39
74798;BME280;63326;45.088;7.658;2024-01-30T09:26:41;100692.56;;;8.65;60.49
74798;BME280;63326;45.088;7.658;2024-01-30T09:29:08;100707.59;;;9.62;54.98
74798;BME280;63326;45.088;7.658;2024-01-30T09:31:35;100676.03;;;10.65;51.40
74798;BME280;63326;45.088;7.658;2024-01-30T09:34:02;100714.16;;;11.75;49.02
74798;BME280;63326;45.088;7.658;2024-01-30T09:36:31;100672.47;;;12.71;44.70
74798;BME280;63326;45.088;7.658;2024-01-30T09:38:58;100712.47;;;13.73;42.71
74798;BME280;63326;45.088;7.658;2024-01-30T09:41:28;100707.47;;;14.20;41.28
74798;BME280;63326;45.088;7.658;2024-01-30T09:43:57;100719.09;;;15.13;39.06
74798;BME280;63326;45.088;7.658;2024-01-30T09:46:26;100713.47;;;14.74;38.87
74798;BME280;63326;45.088;7.658;2024-01-30T09:48:57;100699.81;;;15.41;37.72
74798;BME280;63326;45.088;7.658;2024-01-30T09:51:26;100713.75;;;16.18;35.32
74798;BME280;63326;45.088;7.658;2024-01-30T09:54:02;100713.56;;;16.27;34.82
74798;BME280;63326;45.088;7.658;2024-01-30T09:56:29;100712.00;;;15.78;36.49
74798;BME280;63326;45.088;7.658;2024-01-30T09:58:59;100709.44;;;15.84;36.11
74798;BME280;63326;45.088;7.658;2024-01-30T10:01:27;100709.28;;;15.86;35.57
74798;BME280;63326;45.088;7.658;2024-01-30T10:03:55;100700.31;;;16.33;35.23
74798;BME280;63326;45.088;7.658;2024-01-30T10:06:24;100726.03;;;15.73;35.13
74798;BME280;63326;45.088;7.658;2024-01-30T10:08:51;100723.81;;;15.85;35.35
74798;BME280;63326;45.088;7.658;2024-01-30T10:11:18;100714.03;;;15.59;35.34
74798;BME280;63326;45.088;7.658;2024-01-30T10:13:45;100714.72;;;15.78;35.60
74798;BME280;63326;45.088;7.658;2024-01-30T10:16:14;100714.78;;;16.17;34.69
74798;BME280;63326;45.088;7.658;2024-01-30T10:18:48;100718.34;;;16.17;34.17
74798;BME280;63326;45.088;7.658;2024-01-30T10:21:15;100711.16;;;16.33;33.75
74798;BME280;63326;45.088;7.658;2024-01-30T10:23:43;100722.56;;;13.71;37.21
74798;BME280;63326;45.088;7.658;2024-01-30T10:26:12;100711.34;;;13.40;38.15
74798;BME280;63326;45.088;7.658;2024-01-30T10:28:42;100699.25;;;13.62;37.94
74798;BME280;63326;45.088;7.658;2024-01-30T10:31:09;100703.28;;;14.68;36.44
74798;BME280;63326;45.088;7.658;2024-01-30T10:33:36;100706.06;;;14.84;35.42
74798;BME280;63326;45.088;7.658;2024-01-30T10:36:04;100684.66;;;14.57;36.04
74798;BME280;63326;45.088;7.658;2024-01-30T10:38:33;100702.78;;;14.22;36.67
74798;BME280;63326;45.088;7.658;2024-01-30T10:41:02;100698.44;;;14.38;36.15
74798;BME280;63326;45.088;7.658;2024-01-30T10:43:39;100695.09;;;14.52;36.33
74798;BME280;63326;45.088;7.658;2024-01-30T10:46:19;100698.91;;;14.67;36.14
74798;BME280;63326;45.088;7.658;2024-01-30T10:48:58;100694.25;;;14.43;36.89
74798;BME280;63326;45.088;7.658;2024-01-30T10:51:28;100661.03;;;14.67;36.22
74798;BME280;63326;45.088;7.658;2024-01-30T10:53:56;100684.47;;;14.08;36.70
74798;BME280;63326;45.088;7.658;2024-01-30T10:56:25;100690.34;;;15.04;35.73
74798;BME280;63326;45.088;7.658;2024-01-30T10:58:53;100682.56;;;15.01;35.40
74798;BME280;63326;45.088;7.658;2024-01-30T11:01:21;100682.03;;;15.14;35.13
74798;BME280;63326;45.088;7.658;2024-01-30T11:03:53;100661.06;;;14.83;35.51
74798;BME280;63326;45.088;7.658;2024-01-30T11:06:25;100664.53;;;14.60;36.27
74798;BME280;63326;45.088;7.658;2024-01-30T11:09:05;100668.34;;;14.75;36.30
74798;BME280;63326;45.088;7.658;2024-01-30T11:11:51;100668.97;;;14.61;36.64
74798;BME280;63326;45.088;7.658;2024-01-30T11:14:27;100659.06;;;14.86;36.32
74798;BME280;63326;45.088;7.658;2024-01-30T11:16:59;100646.19;;;14.88;36.08
74798;BME280;63326;45.088;7.658;2024-01-30T11:19:31;100649.88;;;14.70;35.76
74798;BME280;63326;45.088;7.658;2024-01-30T11:21:59;100648.59;;;14.40;36.39
74798;BME280;63326;45.088;7.658;2024-01-30T11:24:27;100644.28;;;13.01;38.14
74798;BME280;63326;45.088;7.658;2024-01-30T11:27:00;100627.63;;;12.88;38.32
74798;BME280;63326;45.088;7.658;2024-01-30T11:29:30;100626.97;;;13.90;36.20
74798;BME280;63326;45.088;7.658;2024-01-30T11:31:59;100639.13;;;14.28;36.54
74798;BME280;63326;45.088;7.658;2024-01-30T11:34:26;100640.34;;;14.34;36.14
74798;BME280;63326;45.088;7.658;2024-01-30T11:36:59;100636.66;;;14.01;36.64
74798;BME280;63326;45.088;7.658;2024-01-30T11:39:30;100621.19;;;13.25;37.52
74798;BME280;63326;45.088;7.658;2024-01-30T11:41:58;100607.94;;;12.70;38.69
74798;BME280;63326;45.088;7.658;2024-01-30T11:44:25;100632.91;;;12.26;39.34
74798;BME280;63326;45.088;7.658;2024-01-30T11:46:53;100625.56;;;11.91;40.07
74798;BME280;63326;45.088;7.658;2024-01-30T11:49:20;100629.00;;;11.84;41.04
74798;BME280;63326;45.088;7.658;2024-01-30T11:51:52;100617.47;;;11.64;41.37
74798;BME280;63326;45.088;7.658;2024-01-30T11:54:20;100615.47;;;11.19;42.88
74798;BME280;63326;45.088;7.658;2024-01-30T11:56:47;100615.88;;;11.24;42.60
74798;BME280;63326;45.088;7.658;2024-01-30T11:59:14;100602.22;;;11.45;42.55
74798;BME280;63326;45.088;7.658;2024-01-30T12:01:42;100607.31;;;11.58;42.38
74798;BME280;63326;45.088;7.658;2024-01-30T12:04:10;100597.97;;;10.76;43.78
74798;BME280;63326;45.088;7.658;2024-01-30T12:06:38;100600.25;;;10.81;44.13
74798;BME280;63326;45.088;7.658;2024-01-30T12:09:06;100608.28;;;11.00;43.69
74798;BME280;63326;45.088;7.658;2024-01-30T12:11:47;100596.72;;;10.90;43.87
74798;BME280;63326;45.088;7.658;2024-01-30T12:14:16;100585.63;;;10.06;44.97
74798;BME280;63326;45.088;7.658;2024-01-30T12:16:47;100540.47;;;9.71;45.82
74798;BME280;63326;45.088;7.658;2024-01-30T12:19:23;100587.16;;;9.28;47.41
74798;BME280;63326;45.088;7.658;2024-01-30T12:21:57;100568.41;;;9.68;46.72
74798;BME280;63326;45.088;7.658;2024-01-30T12:24:27;100595.31;;;9.88;46.62
74798;BME280;63326;45.088;7.658;2024-01-30T12:26:58;100586.59;;;9.25;48.15
74798;BME280;63326;45.088;7.658;2024-01-30T12:29:26;100599.47;;;10.11;46.86
74798;BME280;63326;45.088;7.658;2024-01-30T12:32:02;100551.44;;;10.37;46.09
74798;BME280;63326;45.088;7.658;2024-01-30T12:34:32;100579.03;;;10.49;46.40
74798;BME280;63326;45.088;7.658;2024-01-30T12:37:15;100570.81;;;10.60;46.13
74798;BME280;63326;45.088;7.658;2024-01-30T12:40:18;100571.25;;;10.36;46.14
74798;BME280;63326;45.088;7.658;2024-01-30T12:42:48;100563.53;;;9.83;47.65
74798;BME280;63326;45.088;7.658;2024-01-30T12:45:18;100570.28;;;9.78;47.40
74798;BME280;63326;45.088;7.658;2024-01-30T12:47:50;100566.81;;;10.06;47.31
74798;BME280;63326;45.088;7.658;2024-01-30T12:50:17;100544.00;;;9.72;47.16
74798;BME280;63326;45.088;7.658;2024-01-30T12:52:46;100559.69;;;9.15;49.09
74798;BME280;63326;45.088;7.658;2024-01-30T12:55:16;100525.91;;;9.64;48.06
74798;BME280;63326;45.088;7.658;2024-01-30T12:57:45;100550.28;;;10.11;47.40
74798;BME280;63326;45.088;7.658;2024-01-30T13:00:16;100543.25;;;10.19;47.04